Time;durP1;ratioP1;P1;durP2;ratioP2;P2;SDS_P1;SDS_P2;PMS_P1;PMS_P2;Temp;Humidity;BMP_temperature;BMP_pressure;BME280_temperature;BME280_humidity;BME280_pressure;Samples;Min_cycle;Max_cycle;Signal;HPM_P1;HPM_P2
2023/10/06 00:01:21;;;;;;;;;;;;;;;;;;5031502;28;20084;-72
2023/10/06 00:03:47;;;;;;;;;;;;;;;;;;5031840;28;20391;-72
2023/10/06 00:06:22;;;;;;;;;;;;;;;;;;5031876;28;20041;-68
2023/10/06 00:08:51;;;;;;;;;;;;;;;;;;5031239;28;20036;-70
2023/10/06 00:11:18;;;;;;;;;;;;;;;;;;5031769;28;19986;-70
2023/10/06 00:14:00;;;;;;;;;;;;;;;;;;5039544;28;20081;-71
2023/10/06 00:16:26;;;;;;;;;;;;;;;;;;5050281;28;19992;-70
2023/10/06 00:18:56;;;;;;;;;;;;;;;;;;5040562;28;20086;-70
2023/10/06 00:21:22;;;;;;;;;;;;;;;;;;5030978;28;20032;-69
2023/10/06 00:23:49;;;;;;;;;;;;;;;;;;5031852;28;19986;-69
2023/10/06 00:26:18;;;;;;;;;;;;;;;;;;5036750;28;20042;-70
2023/10/06 00:28:47;;;;;;;;;;;;;;;;;;5051531;28;20020;-70
2023/10/06 00:31:14;;;;;;;;;;;;;;;;;;5051653;28;19992;-69
2023/10/06 00:33:42;;;;;;;;;;;;;;;;;;5051677;28;20009;-69
2023/10/06 00:36:14;;;;;;;;;;;;;;;;;;5050392;28;20048;-70
2023/10/06 00:38:42;;;;;;;;;;;;;;;;;;5051551;28;19993;-70
2023/10/06 00:41:08;;;;;;;;;;;;;;;;;;5051169;28;19992;-69
2023/10/06 00:43:35;;;;;;;;;;;;;;;;;;5050983;28;19989;-69
2023/10/06 00:46:01;;;;;;;;;;;;;;;;;;5029976;28;20104;-70
2023/10/06 00:48:28;;;;;;;;;;;;;;;;;;5031244;28;20536;-69
2023/10/06 00:50:57;;;;;;;;;;;;;;;;;;5031290;28;19993;-69
2023/10/06 00:53:26;;;;;;;;;;;;;;;;;;5042225;28;19994;-70
2023/10/06 00:55:54;;;;;;;;;;;;;;;;;;5051300;28;20449;-70
2023/10/06 00:58:20;;;;;;;;;;;;;;;;;;5051168;28;20047;-70
2023/10/06 01:00:46;;;;;;;;;;;;;;;;;;5051094;28;20381;-70
2023/10/06 01:03:14;;;;;;;;;;;;;;;;;;5050030;28;19996;-69
2023/10/06 01:05:40;;;;;;;;;;;;;;;;;;5050875;28;20500;-69
2023/10/06 01:08:08;;;;;;;;;;;;;;;;;;5042144;28;20056;-69
2023/10/06 01:10:34;;;;;;;;;;;;;;;;;;5031079;28;20355;-70
2023/10/06 01:13:11;;;;;;;;;;;;;;;;;;5032017;28;20026;-69
2023/10/06 01:15:37;;;;;;;;;;;;;;;;;;5043619;28;20036;-70
2023/10/06 01:18:18;;;;;;;;;;;;;;;;;;5054888;28;19985;-69
2023/10/06 01:20:45;;;;;;;;;;;;;;;;;;5053384;28;20001;-69
2023/10/06 01:23:21;;;;;;;;;;;;;;;;;;5054935;28;20076;-69
2023/10/06 01:25:48;;;;;;;;;;;;;;;;;;5054766;28;19985;-69
2023/10/06 01:28:14;;;;;;;;;;;;;;;;;;5054599;28;20058;-71
2023/10/06 01:30:40;;;;;;;;;;;;;;;;;;5052807;28;19985;-69
2023/10/06 01:33:06;;;;;;;;;;;;;;;;;;5054337;28;20076;-68
2023/10/06 01:35:40;;;;;;;;;;;;;;;;;;5054721;28;19990;-70
2023/10/06 01:38:13;;;;;;;;;;;;;;;;;;5054333;28;19986;-69
2023/10/06 01:40:45;;;;;;;;;;;;;;;;;;5052746;28;19993;-69
2023/10/06 01:43:14;;;;;;;;;;;;;;;;;;5054271;28;19985;-69
2023/10/06 01:45:46;;;;;;;;;;;;;;;;;;5039794;28;20120;-69
2023/10/06 01:50:41;;;;;;;;;;;;;;;;;;5033921;28;19990;-70
2023/10/06 01:53:07;;;;;;;;;;;;;;;;;;5034133;28;19987;-69
2023/10/06 01:55:37;;;;;;;;;;;;;;;;;;5034207;28;19982;-69
2023/10/06 01:58:04;;;;;;;;;;;;;;;;;;5048358;28;20503;-70
2023/10/06 02:00:35;;;;;;;;;;;;;;;;;;5054351;28;20052;-69
2023/10/06 02:03:03;;;;;;;;;;;;;;;;;;5041401;28;19989;-69
2023/10/06 02:05:29;;;;;;;;;;;;;;;;;;5034179;28;20113;-69
2023/10/06 02:08:01;;;;;;;;;;;;;;;;;;5047795;28;20572;-69
2023/10/06 02:10:27;;;;;;;;;;;;;;;;;;5052016;28;20016;-69
2023/10/06 02:12:53;;;;;;;;;;;;;;;;;;5053661;28;20315;-70
2023/10/06 02:15:19;;;;;;;;;;;;;;;;;;5052892;28;19990;-70
2023/10/06 02:17:45;;;;;;;;;;;;;;;;;;5041072;28;20017;-69
2023/10/06 02:22:49;;;;;;;;;;;;;;;;;;5033433;28;19990;-69
2023/10/06 02:25:15;;;;;;;;;;;;;;;;;;5032176;28;20026;-68
2023/10/06 02:27:44;;;;;;;;;;;;;;;;;;5033654;28;19982;-69
2023/10/06 02:30:12;;;;;;;;;;;;;;;;;;5032227;28;20014;-69
2023/10/06 02:32:37;;;;;;;;;;;;;;;;;;5032926;28;19990;-68
2023/10/06 02:35:03;;;;;;;;;;;;;;;;;;5033551;28;19982;-69
2023/10/06 02:37:29;;;;;;;;;;;;;;;;;;5033368;28;19993;-70
2023/10/06 02:39:55;;;;;;;;;;;;;;;;;;5042585;28;19993;-69
2023/10/06 02:42:21;;;;;;;;;;;;;;;;;;5051850;28;20009;-67
2023/10/06 02:44:49;;;;;;;;;;;;;;;;;;5052929;28;20067;-68
2023/10/06 02:47:15;;;;;;;;;;;;;;;;;;5053173;28;19989;-68
2023/10/06 02:49:48;;;;;;;;;;;;;;;;;;5050266;28;20068;-69
2023/10/06 02:52:20;;;;;;;;;;;;;;;;;;5052984;28;20445;-68
2023/10/06 02:57:37;;;;;;;;;;;;;;;;;;5051777;28;19989;-70
2023/10/06 03:02:55;;;;;;;;;;;;;;;;;;5034473;28;20338;-70
2023/10/06 03:05:25;;;;;;;;;;;;;;;;;;5051257;28;20005;-71
2023/10/06 03:07:52;;;;;;;;;;;;;;;;;;5051480;28;20013;-68
2023/10/06 03:10:18;;;;;;;;;;;;;;;;;;5051205;28;20020;-68
2023/10/06 03:12:45;;;;;;;;;;;;;;;;;;5052759;28;19990;-69
2023/10/06 03:15:35;;;;;;;;;;;;;;;;;;5033924;28;19989;-69
2023/10/06 03:18:02;;;;;;;;;;;;;;;;;;5031616;28;20420;-69
2023/10/06 03:20:40;;;;;;;;;;;;;;;;;;5032490;28;19992;-70
2023/10/06 03:23:13;;;;;;;;;;;;;;;;;;5030688;28;19995;-69
2023/10/06 03:25:39;;;;;;;;;;;;;;;;;;5032314;28;20474;-68
2023/10/06 03:28:05;;;;;;;;;;;;;;;;;;5032611;28;19993;-69
2023/10/06 03:30:34;;;;;;;;;;;;;;;;;;5032478;28;20022;-69
2023/10/06 03:33:03;;;;;;;;;;;;;;;;;;5032413;28;19986;-69
2023/10/06 03:35:36;;;;;;;;;;;;;;;;;;5041663;28;20410;-70
2023/10/06 03:38:35;;;;;;;;;;;;;;;;;;5032221;28;20009;-69
2023/10/06 03:43:36;;;;;;;;;;;;;;;;;;5032904;28;20071;-69
2023/10/06 03:46:02;;;;;;;;;;;;;;;;;;5046539;28;20017;-69
2023/10/06 03:48:31;;;;;;;;;;;;;;;;;;5050077;28;20561;-69
2023/10/06 03:50:57;;;;;;;;;;;;;;;;;;5038491;28;19998;-68
2023/10/06 03:53:29;;;;;;;;;;;;;;;;;;5038768;28;20028;-68
2023/10/06 03:55:56;;;;;;;;;;;;;;;;;;5051858;28;19989;-69
2023/10/06 03:58:25;;;;;;;;;;;;;;;;;;5051860;28;20031;-68
2023/10/06 04:00:52;;;;;;;;;;;;;;;;;;5047791;28;19990;-70
2023/10/06 04:03:18;;;;;;;;;;;;;;;;;;5051677;28;19989;-69
2023/10/06 04:05:48;;;;;;;;;;;;;;;;;;5050030;28;20481;-68
2023/10/06 04:08:18;;;;;;;;;;;;;;;;;;5051154;28;19986;-70
2023/10/06 04:10:45;;;;;;;;;;;;;;;;;;5042114;28;20358;-67
2023/10/06 04:13:11;;;;;;;;;;;;;;;;;;5033947;28;20044;-67
2023/10/06 04:15:38;;;;;;;;;;;;;;;;;;5031739;28;19990;-67
2023/10/06 04:18:04;;;;;;;;;;;;;;;;;;5031576;28;20021;-69
2023/10/06 04:20:30;;;;;;;;;;;;;;;;;;5039647;28;20418;-66
2023/10/06 04:23:01;;;;;;;;;;;;;;;;;;5051280;28;20034;-69
2023/10/06 04:25:28;;;;;;;;;;;;;;;;;;5051084;28;20354;-67
2023/10/06 04:27:54;;;;;;;;;;;;;;;;;;5051218;28;20089;-67
2023/10/06 04:30:21;;;;;;;;;;;;;;;;;;5050060;28;20100;-68
2023/10/06 04:32:47;;;;;;;;;;;;;;;;;;5051057;28;20047;-66
2023/10/06 04:35:19;;;;;;;;;;;;;;;;;;5057688;28;19990;-67
2023/10/06 04:37:46;;;;;;;;;;;;;;;;;;5071451;28;20401;-67
2023/10/06 04:40:16;;;;;;;;;;;;;;;;;;5053794;28;20069;-68
2023/10/06 04:42:42;;;;;;;;;;;;;;;;;;5037725;28;20021;-67
2023/10/06 04:45:12;;;;;;;;;;;;;;;;;;5036361;28;20108;-67
2023/10/06 04:47:40;;;;;;;;;;;;;;;;;;5044483;28;20089;-68
2023/10/06 04:50:09;;;;;;;;;;;;;;;;;;5039760;28;20124;-67
2023/10/06 04:52:37;;;;;;;;;;;;;;;;;;5038460;28;19993;-68
2023/10/06 04:55:04;;;;;;;;;;;;;;;;;;5050072;28;19986;-67
2023/10/06 04:57:30;;;;;;;;;;;;;;;;;;5054442;28;19994;-67
2023/10/06 04:59:56;;;;;;;;;;;;;;;;;;5057734;28;19994;-68
2023/10/06 05:02:24;;;;;;;;;;;;;;;;;;5065347;28;19996;-67
2023/10/06 05:04:51;;;;;;;;;;;;;;;;;;5039127;28;20009;-67
2023/10/06 05:07:17;;;;;;;;;;;;;;;;;;5053385;28;19989;-68
2023/10/06 05:09:43;;;;;;;;;;;;;;;;;;5048520;28;20006;-67
2023/10/06 05:12:11;;;;;;;;;;;;;;;;;;5053542;28;19992;-73
2023/10/06 05:14:38;;;;;;;;;;;;;;;;;;5053363;28;19986;-71
2023/10/06 05:17:05;;;;;;;;;;;;;;;;;;5053087;28;20466;-73
2023/10/06 05:19:34;;;;;;;;;;;;;;;;;;5053038;28;20361;-72
2023/10/06 05:22:03;;;;;;;;;;;;;;;;;;5034434;28;20030;-71
2023/10/06 05:24:32;;;;;;;;;;;;;;;;;;5032942;28;20486;-73
2023/10/06 05:26:58;;;;;;;;;;;;;;;;;;5042319;28;19993;-72
2023/10/06 05:29:25;;;;;;;;;;;;;;;;;;5034703;28;20013;-72
2023/10/06 05:31:52;;;;;;;;;;;;;;;;;;5034878;28;20010;-73
2023/10/06 05:34:17;;;;;;;;;;;;;;;;;;5034462;28;20061;-72
2023/10/06 05:36:43;;;;;;;;;;;;;;;;;;5036417;28;19990;-72
2023/10/06 05:39:11;;;;;;;;;;;;;;;;;;5050857;28;20300;-74
2023/10/06 05:41:39;;;;;;;;;;;;;;;;;;5065215;28;20009;-71
2023/10/06 05:44:08;;;;;;;;;;;;;;;;;;5051513;28;20084;-74
2023/10/06 05:46:34;;;;;;;;;;;;;;;;;;5051088;28;19997;-71
2023/10/06 05:49:03;;;;;;;;;;;;;;;;;;5053533;28;20335;-72
2023/10/06 05:51:29;;;;;;;;;;;;;;;;;;5050128;28;19998;-72
2023/10/06 05:54:12;;;;;;;;;;;;;;;;;;5036850;28;20439;-73
2023/10/06 05:56:45;;;;;;;;;;;;;;;;;;5054491;28;19993;-72
2023/10/06 05:59:18;;;;;;;;;;;;;;;;;;5052570;28;19993;-72
2023/10/06 06:01:55;;;;;;;;;;;;;;;;;;5052420;28;20041;-72
2023/10/06 06:04:33;;;;;;;;;;;;;;;;;;5051874;28;20017;-74
2023/10/06 06:07:02;;;;;;;;;;;;;;;;;;5045037;28;20072;-73
2023/10/06 06:09:30;;;;;;;;;;;;;;;;;;5033891;28;20528;-73
2023/10/06 06:11:58;;;;;;;;;;;;;;;;;;5034177;28;19990;-73
2023/10/06 06:14:24;;;;;;;;;;;;;;;;;;5052273;28;19993;-73
2023/10/06 06:16:50;;;;;;;;;;;;;;;;;;5041510;28;19998;-73
2023/10/06 06:19:16;;;;;;;;;;;;;;;;;;5033151;28;20044;-73
2023/10/06 06:21:42;;;;;;;;;;;;;;;;;;5044714;28;20401;-72
2023/10/06 06:24:08;;;;;;;;;;;;;;;;;;5033817;28;20025;-71
2023/10/06 06:26:36;;;;;;;;;;;;;;;;;;5033440;28;20048;-72
2023/10/06 06:29:03;;;;;;;;;;;;;;;;;;5042260;28;20466;-72
2023/10/06 06:31:29;;;;;;;;;;;;;;;;;;5053499;28;19996;-71
2023/10/06 06:33:56;;;;;;;;;;;;;;;;;;5053070;28;20456;-74
2023/10/06 06:36:22;;;;;;;;;;;;;;;;;;5047270;28;20009;-72
2023/10/06 06:38:48;;;;;;;;;;;;;;;;;;5041300;28;20283;-73
2023/10/06 06:41:15;;;;;;;;;;;;;;;;;;5041730;28;20024;-76
2023/10/06 06:43:45;;;;;;;;;;;;;;;;;;5042839;28;19986;-76
2023/10/06 06:46:11;;;;;;;;;;;;;;;;;;5042660;28;20100;-73
2023/10/06 06:48:38;;;;;;;;;;;;;;;;;;5040829;28;20490;-73
2023/10/06 06:51:04;;;;;;;;;;;;;;;;;;5033579;28;19990;-71
2023/10/06 06:53:30;;;;;;;;;;;;;;;;;;5032628;28;20123;-74
2023/10/06 06:55:56;;;;;;;;;;;;;;;;;;5032610;28;19994;-71
2023/10/06 06:58:22;;;;;;;;;;;;;;;;;;5040622;28;19997;-72
2023/10/06 07:00:48;;;;;;;;;;;;;;;;;;5032948;28;19983;-72
2023/10/06 07:03:14;;;;;;;;;;;;;;;;;;5033665;28;20463;-73
2023/10/06 07:05:40;;;;;;;;;;;;;;;;;;5036580;28;20006;-73
2023/10/06 07:08:06;;;;;;;;;;;;;;;;;;5032566;28;19990;-76
2023/10/06 07:10:32;;;;;;;;;;;;;;;;;;5048757;28;20084;-74
2023/10/06 07:12:58;;;;;;;;;;;;;;;;;;5036348;28;20482;-74
2023/10/06 07:15:27;;;;;;;;;;;;;;;;;;5032787;28;19986;-73
2023/10/06 07:17:56;;;;;;;;;;;;;;;;;;5032524;28;20403;-73
2023/10/06 07:20:27;;;;;;;;;;;;;;;;;;5036363;28;19993;-73
2023/10/06 07:22:53;;;;;;;;;;;;;;;;;;5052155;28;20072;-72
2023/10/06 07:25:19;;;;;;;;;;;;;;;;;;5052035;28;20029;-74
2023/10/06 07:27:45;;;;;;;;;;;;;;;;;;5052242;28;20366;-74
2023/10/06 07:30:11;;;;;;;;;;;;;;;;;;5052268;28;20016;-74
2023/10/06 07:32:40;;;;;;;;;;;;;;;;;;5052045;28;20498;-74
2023/10/06 07:35:06;;;;;;;;;;;;;;;;;;5051034;28;20001;-74
2023/10/06 07:37:32;;;;;;;;;;;;;;;;;;5049850;28;19982;-74
2023/10/06 07:40:02;;;;;;;;;;;;;;;;;;5031913;28;20009;-74
2023/10/06 07:42:29;;;;;;;;;;;;;;;;;;5031048;28;20450;-74
2023/10/06 07:44:55;;;;;;;;;;;;;;;;;;5032003;28;20018;-74
2023/10/06 07:47:24;;;;;;;;;;;;;;;;;;5031904;28;19988;-74
2023/10/06 07:49:50;;;;;;;;;;;;;;;;;;5032019;28;20032;-74
2023/10/06 07:52:17;;;;;;;;;;;;;;;;;;5031838;28;20458;-73
2023/10/06 07:54:43;;;;;;;;;;;;;;;;;;5031726;28;20553;-74
2023/10/06 07:57:12;;;;;;;;;;;;;;;;;;5031489;28;20001;-74
2023/10/06 07:59:39;;;;;;;;;;;;;;;;;;5031930;28;19986;-74
2023/10/06 08:02:05;;;;;;;;;;;;;;;;;;5031599;28;20021;-74
2023/10/06 08:04:32;;;;;;;;;;;;;;;;;;5031711;28;19986;-75
2023/10/06 08:07:00;;;;;;;;;;;;;;;;;;5031782;28;20016;-75
2023/10/06 08:09:26;;;;;;;;;;;;;;;;;;5031920;28;20022;-75
2023/10/06 08:11:54;;;;;;;;;;;;;;;;;;5031862;28;19981;-74
2023/10/06 08:14:20;;;;;;;;;;;;;;;;;;5031153;28;19993;-74
2023/10/06 08:16:46;;;;;;;;;;;;;;;;;;5031669;28;19994;-74
2023/10/06 08:19:12;;;;;;;;;;;;;;;;;;5031445;28;19986;-73
2023/10/06 08:21:38;;;;;;;;;;;;;;;;;;5031407;28;20419;-73
2023/10/06 08:24:06;;;;;;;;;;;;;;;;;;5031569;28;20135;-73
2023/10/06 08:26:31;;;;;;;;;;;;;;;;;;5030039;28;20358;-74
2023/10/06 08:28:57;;;;;;;;;;;;;;;;;;5031518;28;20006;-73
2023/10/06 08:31:24;;;;;;;;;;;;;;;;;;5046402;28;19989;-76
2023/10/06 08:33:50;;;;;;;;;;;;;;;;;;5051282;28;19990;-73
2023/10/06 08:36:17;;;;;;;;;;;;;;;;;;5051540;28;20040;-74
2023/10/06 08:38:46;;;;;;;;;;;;;;;;;;5051301;28;19986;-73
2023/10/06 08:41:12;;;;;;;;;;;;;;;;;;5050283;28;20443;-73
2023/10/06 08:43:38;;;;;;;;;;;;;;;;;;5051354;28;20032;-74
2023/10/06 08:46:05;;;;;;;;;;;;;;;;;;5045166;28;20437;-73
2023/10/06 08:48:31;;;;;;;;;;;;;;;;;;5031194;28;20585;-74
2023/10/06 08:50:57;;;;;;;;;;;;;;;;;;5031408;28;20522;-74
2023/10/06 08:53:23;;;;;;;;;;;;;;;;;;5031274;28;20447;-74
2023/10/06 08:55:49;;;;;;;;;;;;;;;;;;5031032;28;20481;-74
2023/10/06 08:58:17;;;;;;;;;;;;;;;;;;5031160;28;19990;-74
2023/10/06 09:00:43;;;;;;;;;;;;;;;;;;5030136;28;19986;-73
2023/10/06 09:03:11;;;;;;;;;;;;;;;;;;5030434;28;19994;-73
2023/10/06 09:05:37;;;;;;;;;;;;;;;;;;5031376;28;20093;-74
2023/10/06 09:08:07;;;;;;;;;;;;;;;;;;5031248;28;19990;-73
2023/10/06 09:10:33;;;;;;;;;;;;;;;;;;5031039;28;20049;-74
2023/10/06 09:13:02;;;;;;;;;;;;;;;;;;5031468;28;20059;-74
2023/10/06 09:15:28;;;;;;;;;;;;;;;;;;5031159;28;20039;-73
2023/10/06 09:17:54;;;;;;;;;;;;;;;;;;5030788;28;20394;-73
2023/10/06 09:20:20;;;;;;;;;;;;;;;;;;5029803;28;20090;-74
2023/10/06 09:22:45;;;;;;;;;;;;;;;;;;5031211;28;19990;-74
2023/10/06 09:25:11;;;;;;;;;;;;;;;;;;5030889;28;20435;-74
2023/10/06 09:27:38;;;;;;;;;;;;;;;;;;5031008;28;20010;-73
2023/10/06 09:30:15;;;;;;;;;;;;;;;;;;5030956;28;20014;-74
2023/10/06 09:32:42;;;;;;;;;;;;;;;;;;5030231;28;20008;-74
2023/10/06 09:35:08;;;;;;;;;;;;;;;;;;5034263;28;19990;-74
2023/10/06 09:37:34;;;;;;;;;;;;;;;;;;5034310;28;19986;-75
2023/10/06 09:40:18;;;;;;;;;;;;;;;;;;5034711;28;19993;-74
2023/10/06 09:42:44;;;;;;;;;;;;;;;;;;5034969;28;20481;-74
2023/10/06 09:45:15;;;;;;;;;;;;;;;;;;5034315;28;20022;-74
2023/10/06 09:47:41;;;;;;;;;;;;;;;;;;5034582;28;20468;-74
2023/10/06 09:50:07;;;;;;;;;;;;;;;;;;5034282;28;20108;-74
2023/10/06 09:52:39;;;;;;;;;;;;;;;;;;5033127;28;21423;-74
2023/10/06 09:55:06;;;;;;;;;;;;;;;;;;5033926;28;20492;-74
2023/10/06 09:57:32;;;;;;;;;;;;;;;;;;5034369;28;19991;-74
2023/10/06 09:59:58;;;;;;;;;;;;;;;;;;5034296;28;19986;-74
2023/10/06 10:02:24;;;;;;;;;;;;;;;;;;5034114;28;19988;-74
2023/10/06 10:04:50;;;;;;;;;;;;;;;;;;5033879;28;20020;-75
2023/10/06 10:07:16;;;;;;;;;;;;;;;;;;5033915;28;20198;-75
2023/10/06 10:09:43;;;;;;;;;;;;;;;;;;5053167;28;20009;-75
2023/10/06 10:12:09;;;;;;;;;;;;;;;;;;5053782;28;20442;-74
2023/10/06 10:14:36;;;;;;;;;;;;;;;;;;5053916;28;20016;-74
2023/10/06 10:17:02;;;;;;;;;;;;;;;;;;5054099;28;20025;-74
2023/10/06 10:19:28;;;;;;;;;;;;;;;;;;5053675;28;20065;-72
2023/10/06 10:21:54;;;;;;;;;;;;;;;;;;5053913;28;19981;-74
2023/10/06 10:24:20;;;;;;;;;;;;;;;;;;5045117;28;19993;-74
2023/10/06 10:26:46;;;;;;;;;;;;;;;;;;5033504;28;19991;-74
2023/10/06 10:29:12;;;;;;;;;;;;;;;;;;5033491;28;20105;-74
2023/10/06 10:31:38;;;;;;;;;;;;;;;;;;5033657;28;19993;-73
2023/10/06 10:34:05;;;;;;;;;;;;;;;;;;5033708;28;20104;-73
2023/10/06 10:36:31;;;;;;;;;;;;;;;;;;5033440;28;20016;-75
2023/10/06 10:38:58;;;;;;;;;;;;;;;;;;5033480;28;20435;-75
2023/10/06 10:41:26;;;;;;;;;;;;;;;;;;5032944;28;20002;-75
2023/10/06 10:43:53;;;;;;;;;;;;;;;;;;5033324;28;20021;-75
2023/10/06 10:46:19;;;;;;;;;;;;;;;;;;5032780;28;20415;-75
2023/10/06 10:48:48;;;;;;;;;;;;;;;;;;5033361;28;20006;-74
2023/10/06 10:51:14;;;;;;;;;;;;;;;;;;5033196;28;20056;-74
2023/10/06 10:53:47;;;;;;;;;;;;;;;;;;5033144;28;20021;-74
2023/10/06 10:56:13;;;;;;;;;;;;;;;;;;5033265;28;19990;-75
2023/10/06 10:58:39;;;;;;;;;;;;;;;;;;5032339;28;19990;-74
2023/10/06 11:01:06;;;;;;;;;;;;;;;;;;5033295;28;20036;-73
2023/10/06 11:03:32;;;;;;;;;;;;;;;;;;5033036;28;19986;-75
2023/10/06 11:05:58;;;;;;;;;;;;;;;;;;5032573;28;20093;-75
2023/10/06 11:08:24;;;;;;;;;;;;;;;;;;5032653;28;20041;-74
2023/10/06 11:10:50;;;;;;;;;;;;;;;;;;5033116;28;19993;-74
2023/10/06 11:13:18;;;;;;;;;;;;;;;;;;5032230;28;19993;-74
2023/10/06 11:15:44;;;;;;;;;;;;;;;;;;5032758;28;19982;-76
2023/10/06 11:18:10;;;;;;;;;;;;;;;;;;5032601;28;19989;-74
2023/10/06 11:20:35;;;;;;;;;;;;;;;;;;5031073;28;19993;-74
2023/10/06 11:23:03;;;;;;;;;;;;;;;;;;5032540;28;19990;-73
2023/10/06 11:25:29;;;;;;;;;;;;;;;;;;5032581;28;19989;-74
2023/10/06 11:27:55;;;;;;;;;;;;;;;;;;5032222;28;19987;-73
2023/10/06 11:30:23;;;;;;;;;;;;;;;;;;5039031;28;20016;-73
2023/10/06 11:32:49;;;;;;;;;;;;;;;;;;5052377;28;19986;-74
2023/10/06 11:35:15;;;;;;;;;;;;;;;;;;5052225;28;19988;-74
2023/10/06 11:37:41;;;;;;;;;;;;;;;;;;5052147;28;20000;-74
2023/10/06 11:40:08;;;;;;;;;;;;;;;;;;5051952;28;20448;-74
2023/10/06 11:42:35;;;;;;;;;;;;;;;;;;5052019;28;20061;-75
2023/10/06 11:45:06;;;;;;;;;;;;;;;;;;5051697;28;20402;-74
2023/10/06 11:47:31;;;;;;;;;;;;;;;;;;5051557;28;20518;-74
2023/10/06 11:49:57;;;;;;;;;;;;;;;;;;5051873;28;20108;-74
2023/10/06 11:52:24;;;;;;;;;;;;;;;;;;5052093;28;19992;-75
2023/10/06 11:54:51;;;;;;;;;;;;;;;;;;5051576;28;20310;-74
2023/10/06 11:57:17;;;;;;;;;;;;;;;;;;5051615;28;20381;-75
2023/10/06 11:59:43;;;;;;;;;;;;;;;;;;5051776;28;20020;-74
2023/10/06 12:02:09;;;;;;;;;;;;;;;;;;5046334;28;19986;-74
2023/10/06 12:04:36;;;;;;;;;;;;;;;;;;5031839;28;19990;-75
2023/10/06 12:07:03;;;;;;;;;;;;;;;;;;5031398;28;20088;-74
2023/10/06 12:09:29;;;;;;;;;;;;;;;;;;5031665;28;20014;-74
2023/10/06 12:11:59;;;;;;;;;;;;;;;;;;5031883;28;19990;-74
2023/10/06 12:14:25;;;;;;;;;;;;;;;;;;5031685;28;20135;-74
2023/10/06 12:16:51;;;;;;;;;;;;;;;;;;5031779;28;20036;-75
2023/10/06 12:19:17;;;;;;;;;;;;;;;;;;5030999;28;20079;-74
2023/10/06 12:21:43;;;;;;;;;;;;;;;;;;5030308;28;19990;-73
2023/10/06 12:24:11;;;;;;;;;;;;;;;;;;5031909;28;20320;-74
2023/10/06 12:26:37;;;;;;;;;;;;;;;;;;5031836;28;20423;-74
2023/10/06 12:29:03;;;;;;;;;;;;;;;;;;5031531;28;20010;-74
2023/10/06 12:31:29;;;;;;;;;;;;;;;;;;5031923;28;19986;-74
2023/10/06 12:33:55;;;;;;;;;;;;;;;;;;5031428;28;19990;-74
2023/10/06 12:36:21;;;;;;;;;;;;;;;;;;5031757;28;19986;-75
2023/10/06 12:38:47;;;;;;;;;;;;;;;;;;5031443;28;20354;-74
2023/10/06 12:41:13;;;;;;;;;;;;;;;;;;5031714;28;20435;-76
2023/10/06 12:43:39;;;;;;;;;;;;;;;;;;5031401;28;19986;-74
2023/10/06 12:46:05;;;;;;;;;;;;;;;;;;5031391;28;20057;-75
2023/10/06 12:48:30;;;;;;;;;;;;;;;;;;5031433;28;19990;-75
2023/10/06 12:50:56;;;;;;;;;;;;;;;;;;5031610;28;20132;-75
2023/10/06 12:53:22;;;;;;;;;;;;;;;;;;5030817;28;20304;-75
2023/10/06 12:55:56;;;;;;;;;;;;;;;;;;5031279;28;19985;-74
2023/10/06 12:58:22;;;;;;;;;;;;;;;;;;5031225;28;19982;-74
2023/10/06 13:00:48;;;;;;;;;;;;;;;;;;5030889;28;19998;-74
2023/10/06 13:03:19;;;;;;;;;;;;;;;;;;5031187;28;19992;-75
2023/10/06 13:05:45;;;;;;;;;;;;;;;;;;5029802;28;20379;-75
2023/10/06 13:08:16;;;;;;;;;;;;;;;;;;5032272;28;20461;-75
2023/10/06 13:10:46;;;;;;;;;;;;;;;;;;5035143;28;20068;-75
2023/10/06 13:13:12;;;;;;;;;;;;;;;;;;5034881;28;20375;-75
2023/10/06 13:15:41;;;;;;;;;;;;;;;;;;5039019;28;19992;-75
2023/10/06 13:18:08;;;;;;;;;;;;;;;;;;5054881;28;19990;-74
2023/10/06 13:20:34;;;;;;;;;;;;;;;;;;5055165;28;19986;-74
2023/10/06 13:23:04;;;;;;;;;;;;;;;;;;5054887;28;20080;-75
2023/10/06 13:25:33;;;;;;;;;;;;;;;;;;5053622;28;20643;-75
2023/10/06 13:27:59;;;;;;;;;;;;;;;;;;5055118;28;19994;-74
2023/10/06 13:30:25;;;;;;;;;;;;;;;;;;5054774;28;20374;-75
2023/10/06 13:32:56;;;;;;;;;;;;;;;;;;5053651;28;19997;-74
2023/10/06 13:35:24;;;;;;;;;;;;;;;;;;5054754;28;19982;-75
2023/10/06 13:37:50;;;;;;;;;;;;;;;;;;5055055;28;20327;-75
2023/10/06 13:40:16;;;;;;;;;;;;;;;;;;5053084;28;19985;-76
2023/10/06 13:42:42;;;;;;;;;;;;;;;;;;5054747;28;20131;-75
2023/10/06 13:45:14;;;;;;;;;;;;;;;;;;5053091;28;20061;-75
2023/10/06 13:47:40;;;;;;;;;;;;;;;;;;5047448;28;19986;-73
2023/10/06 13:50:06;;;;;;;;;;;;;;;;;;5034277;28;20010;-74
2023/10/06 13:52:33;;;;;;;;;;;;;;;;;;5034564;28;19986;-74
2023/10/06 13:54:59;;;;;;;;;;;;;;;;;;5034424;28;19990;-75
2023/10/06 13:57:25;;;;;;;;;;;;;;;;;;5034433;28;20032;-75
2023/10/06 13:59:51;;;;;;;;;;;;;;;;;;5034594;28;19987;-76
2023/10/06 14:02:17;;;;;;;;;;;;;;;;;;5034081;28;20032;-75
2023/10/06 14:04:43;;;;;;;;;;;;;;;;;;5033786;28;20497;-76
2023/10/06 14:07:11;;;;;;;;;;;;;;;;;;5053897;28;19992;-75
2023/10/06 14:09:37;;;;;;;;;;;;;;;;;;5054108;28;20425;-75
2023/10/06 14:12:07;;;;;;;;;;;;;;;;;;5053865;28;20434;-74
2023/10/06 14:14:54;;;;;;;;;;;;;;;;;;5052439;28;20405;-75
2023/10/06 14:17:25;;;;;;;;;;;;;;;;;;5054238;28;20025;-76
2023/10/06 14:19:51;;;;;;;;;;;;;;;;;;5053492;28;19993;-74
2023/10/06 14:22:21;;;;;;;;;;;;;;;;;;5052628;28;19994;-74
2023/10/06 14:24:48;;;;;;;;;;;;;;;;;;5052534;28;19990;-75
2023/10/06 14:27:16;;;;;;;;;;;;;;;;;;5053614;28;19982;-75
2023/10/06 14:29:41;;;;;;;;;;;;;;;;;;5053293;28;20032;-75
2023/10/06 14:34:58;;;;;;;;;;;;;;;;;;5053784;28;20039;-75
2023/10/06 14:45:59;;;;;;;;;;;;;;;;;;5052994;28;20024;-76
2023/10/06 14:48:27;;;;;;;;;;;;;;;;;;5053488;28;20087;-74
2023/10/06 14:50:53;;;;;;;;;;;;;;;;;;5051562;28;19996;-74
2023/10/06 14:53:18;;;;;;;;;;;;;;;;;;5051819;28;20088;-73
2023/10/06 14:55:47;;;;;;;;;;;;;;;;;;5051737;28;19993;-74
2023/10/06 14:58:13;;;;;;;;;;;;;;;;;;5052980;28;20036;-73
2023/10/06 15:00:39;;;;;;;;;;;;;;;;;;5052916;28;20040;-75
2023/10/06 15:03:08;;;;;;;;;;;;;;;;;;5052908;28;19982;-74
2023/10/06 15:05:36;;;;;;;;;;;;;;;;;;5052709;28;19998;-74
2023/10/06 15:08:02;;;;;;;;;;;;;;;;;;5052838;28;19996;-75
2023/10/06 15:10:28;;;;;;;;;;;;;;;;;;5047407;28;20010;-73
2023/10/06 15:12:58;;;;;;;;;;;;;;;;;;5032847;28;20457;-74
2023/10/06 15:15:25;;;;;;;;;;;;;;;;;;5032812;28;20048;-74
2023/10/06 15:17:55;;;;;;;;;;;;;;;;;;5032396;28;20485;-74
2023/10/06 15:20:20;;;;;;;;;;;;;;;;;;5032472;28;20488;-73
2023/10/06 15:22:47;;;;;;;;;;;;;;;;;;5032650;28;20080;-74
2023/10/06 15:25:13;;;;;;;;;;;;;;;;;;5032473;28;19990;-74
2023/10/06 15:27:39;;;;;;;;;;;;;;;;;;5032815;28;20099;-74
2023/10/06 15:30:05;;;;;;;;;;;;;;;;;;5032444;28;20482;-75
2023/10/06 15:32:31;;;;;;;;;;;;;;;;;;5032187;28;19982;-77
2023/10/06 15:34:57;;;;;;;;;;;;;;;;;;5031792;28;19994;-75
2023/10/06 15:37:23;;;;;;;;;;;;;;;;;;5032284;28;20462;-74
2023/10/06 15:39:50;;;;;;;;;;;;;;;;;;5032287;28;19986;-75
2023/10/06 15:42:16;;;;;;;;;;;;;;;;;;5032181;28;19986;-75
2023/10/06 15:44:42;;;;;;;;;;;;;;;;;;5032003;28;20013;-75
2023/10/06 15:47:09;;;;;;;;;;;;;;;;;;5032021;28;20013;-75
2023/10/06 15:49:37;;;;;;;;;;;;;;;;;;5032159;28;20459;-74
2023/10/06 15:52:03;;;;;;;;;;;;;;;;;;5031583;28;20052;-74
2023/10/06 15:54:29;;;;;;;;;;;;;;;;;;5031976;28;19990;-74
2023/10/06 15:56:55;;;;;;;;;;;;;;;;;;5031967;28;19986;-74
2023/10/06 15:59:24;;;;;;;;;;;;;;;;;;5031900;28;19986;-74
2023/10/06 16:01:50;;;;;;;;;;;;;;;;;;5031864;28;20070;-73
2023/10/06 16:04:17;;;;;;;;;;;;;;;;;;5031799;28;19986;-75
2023/10/06 16:06:45;;;;;;;;;;;;;;;;;;5031659;28;20481;-75
2023/10/06 16:09:15;;;;;;;;;;;;;;;;;;5031507;28;20100;-75
2023/10/06 16:11:41;;;;;;;;;;;;;;;;;;5032229;28;20110;-73
2023/10/06 16:14:07;;;;;;;;;;;;;;;;;;5031923;28;20495;-73
2023/10/06 16:16:36;;;;;;;;;;;;;;;;;;5031822;28;19992;-73
2023/10/06 16:19:05;;;;;;;;;;;;;;;;;;5032078;28;19990;-73
2023/10/06 16:21:32;;;;;;;;;;;;;;;;;;5031691;28;20044;-72
2023/10/06 16:23:58;;;;;;;;;;;;;;;;;;5031780;28;20477;-73
2023/10/06 16:26:25;;;;;;;;;;;;;;;;;;5030956;28;19994;-72
2023/10/06 16:28:51;;;;;;;;;;;;;;;;;;5031623;28;20104;-72
2023/10/06 16:31:17;;;;;;;;;;;;;;;;;;5043465;28;20037;-73
2023/10/06 16:33:43;;;;;;;;;;;;;;;;;;5051344;28;20032;-72
2023/10/06 16:36:10;;;;;;;;;;;;;;;;;;5050053;28;19985;-74
2023/10/06 16:38:38;;;;;;;;;;;;;;;;;;5050804;28;20335;-74
2023/10/06 16:41:04;;;;;;;;;;;;;;;;;;5051546;28;20036;-73
2023/10/06 16:43:31;;;;;;;;;;;;;;;;;;5051860;28;19994;-73
2023/10/06 16:45:57;;;;;;;;;;;;;;;;;;5047023;28;20445;-73
2023/10/06 16:48:23;;;;;;;;;;;;;;;;;;5039529;28;20062;-72
2023/10/06 16:50:53;;;;;;;;;;;;;;;;;;5044207;28;20122;-73
2023/10/06 16:53:19;;;;;;;;;;;;;;;;;;5055613;28;19986;-74
2023/10/06 16:55:45;;;;;;;;;;;;;;;;;;5047561;28;20423;-75
2023/10/06 16:58:11;;;;;;;;;;;;;;;;;;5054265;28;20430;-74
2023/10/06 17:00:37;;;;;;;;;;;;;;;;;;5054917;28;19982;-75
2023/10/06 17:03:03;;;;;;;;;;;;;;;;;;5055233;28;20334;-73
2023/10/06 17:05:30;;;;;;;;;;;;;;;;;;5049365;28;20001;-75
2023/10/06 17:07:56;;;;;;;;;;;;;;;;;;5037813;28;20358;-74
2023/10/06 17:10:22;;;;;;;;;;;;;;;;;;5034097;28;20006;-74
2023/10/06 17:12:48;;;;;;;;;;;;;;;;;;5034816;28;20392;-74